sensor_id;sensor_type;location;lat;lon;timestamp;P1;durP1;ratioP1;P2;durP2;ratioP2
2386;SDS011;49473;50.772;8.768;2022-11-20T00:00:19;13.87;;;10.43;;
2386;SDS011;49473;50.772;8.768;2022-11-20T00:02:46;12.73;;;11.43;;
2386;SDS011;49473;50.772;8.768;2022-11-20T00:05:12;13.20;;;11.73;;
2386;SDS011;49473;50.772;8.768;2022-11-20T00:07:39;12.77;;;11.47;;
2386;SDS011;49473;50.772;8.768;2022-11-20T00:10:06;13.00;;;10.83;;
2386;SDS011;49473;50.772;8.768;2022-11-20T00:12:34;16.37;;;13.13;;
2386;SDS011;49473;50.772;8.768;2022-11-20T00:15:02;13.03;;;11.60;;
2386;SDS011;49473;50.772;8.768;2022-11-20T00:17:29;13.53;;;11.53;;
2386;SDS011;49473;50.772;8.768;2022-11-20T00:19:56;12.50;;;11.20;;
2386;SDS011;49473;50.772;8.768;2022-11-20T00:22:23;13.10;;;10.30;;
2386;SDS011;49473;50.772;8.768;2022-11-20T00:24:49;12.30;;;10.70;;
2386;SDS011;49473;50.772;8.768;2022-11-20T00:27:16;11.27;;;10.10;;
2386;SDS011;49473;50.772;8.768;2022-11-20T00:29:43;11.27;;;9.90;;
2386;SDS011;49473;50.772;8.768;2022-11-20T00:32:11;14.20;;;11.90;;
2386;SDS011;49473;50.772;8.768;2022-11-20T00:34:38;11.50;;;10.10;;
2386;SDS011;49473;50.772;8.768;2022-11-20T00:37:05;11.57;;;10.07;;
2386;SDS011;49473;50.772;8.768;2022-11-20T00:39:31;11.90;;;10.27;;
2386;SDS011;49473;50.772;8.768;2022-11-20T00:41:58;14.03;;;11.13;;
2386;SDS011;49473;50.772;8.768;2022-11-20T00:44:25;14.00;;;11.37;;
2386;SDS011;49473;50.772;8.768;2022-11-20T00:46:52;13.93;;;11.70;;
2386;SDS011;49473;50.772;8.768;2022-11-20T00:49:20;13.03;;;11.30;;
2386;SDS011;49473;50.772;8.768;2022-11-20T00:51:46;13.10;;;11.17;;
2386;SDS011;49473;50.772;8.768;2022-11-20T00:54:13;13.37;;;11.23;;
2386;SDS011;49473;50.772;8.768;2022-11-20T00:56:40;12.00;;;10.80;;
2386;SDS011;49473;50.772;8.768;2022-11-20T00:59:08;13.17;;;11.07;;
2386;SDS011;49473;50.772;8.768;2022-11-20T01:01:36;11.50;;;10.30;;
2386;SDS011;49473;50.772;8.768;2022-11-20T01:04:03;10.50;;;9.33;;
2386;SDS011;49473;50.772;8.768;2022-11-20T01:06:33;12.30;;;9.70;;
2386;SDS011;49473;50.772;8.768;2022-11-20T01:09:02;11.30;;;9.10;;
2386;SDS011;49473;50.772;8.768;2022-11-20T01:11:31;12.50;;;10.17;;
2386;SDS011;49473;50.772;8.768;2022-11-20T01:14:00;11.13;;;9.93;;
2386;SDS011;49473;50.772;8.768;2022-11-20T01:16:30;10.10;;;9.07;;
2386;SDS011;49473;50.772;8.768;2022-11-20T01:18:59;11.50;;;10.27;;
2386;SDS011;49473;50.772;8.768;2022-11-20T01:21:27;12.33;;;10.00;;
2386;SDS011;49473;50.772;8.768;2022-11-20T01:23:56;12.20;;;10.10;;
2386;SDS011;49473;50.772;8.768;2022-11-20T01:26:25;10.53;;;9.53;;
2386;SDS011;49473;50.772;8.768;2022-11-20T01:28:53;10.60;;;9.50;;
2386;SDS011;49473;50.772;8.768;2022-11-20T01:31:21;11.40;;;10.30;;
2386;SDS011;49473;50.772;8.768;2022-11-20T01:33:50;10.10;;;9.00;;
2386;SDS011;49473;50.772;8.768;2022-11-20T01:36:19;13.53;;;10.40;;
2386;SDS011;49473;50.772;8.768;2022-11-20T01:38:46;12.50;;;10.07;;
2386;SDS011;49473;50.772;8.768;2022-11-20T01:41:15;11.50;;;9.60;;
2386;SDS011;49473;50.772;8.768;2022-11-20T01:43:55;12.67;;;10.20;;
2386;SDS011;49473;50.772;8.768;2022-11-20T01:46:22;11.60;;;9.77;;
2386;SDS011;49473;50.772;8.768;2022-11-20T01:48:50;11.43;;;10.33;;
2386;SDS011;49473;50.772;8.768;2022-11-20T01:51:24;11.20;;;10.10;;
2386;SDS011;49473;50.772;8.768;2022-11-20T01:53:55;10.87;;;9.20;;
2386;SDS011;49473;50.772;8.768;2022-11-20T01:56:28;13.30;;;10.53;;
2386;SDS011;49473;50.772;8.768;2022-11-20T01:58:58;13.10;;;11.17;;
2386;SDS011;49473;50.772;8.768;2022-11-20T02:01:27;12.57;;;10.50;;
2386;SDS011;49473;50.772;8.768;2022-11-20T02:03:54;13.90;;;11.30;;
2386;SDS011;49473;50.772;8.768;2022-11-20T02:06:23;13.13;;;11.70;;
2386;SDS011;49473;50.772;8.768;2022-11-20T02:08:52;13.93;;;11.60;;
2386;SDS011;49473;50.772;8.768;2022-11-20T02:11:19;12.70;;;10.57;;
2386;SDS011;49473;50.772;8.768;2022-11-20T02:13:48;13.63;;;12.07;;
2386;SDS011;49473;50.772;8.768;2022-11-20T02:16:15;16.20;;;12.30;;
2386;SDS011;49473;50.772;8.768;2022-11-20T02:18:45;12.63;;;11.17;;
2386;SDS011;49473;50.772;8.768;2022-11-20T02:21:24;13.03;;;11.43;;
2386;SDS011;49473;50.772;8.768;2022-11-20T02:24:07;11.53;;;10.33;;
2386;SDS011;49473;50.772;8.768;2022-11-20T02:26:38;13.30;;;10.97;;
2386;SDS011;49473;50.772;8.768;2022-11-20T02:29:08;15.07;;;12.20;;
2386;SDS011;49473;50.772;8.768;2022-11-20T02:31:40;14.60;;;11.77;;
2386;SDS011;49473;50.772;8.768;2022-11-20T02:34:08;12.50;;;10.63;;
2386;SDS011;49473;50.772;8.768;2022-11-20T02:36:35;14.60;;;11.30;;
2386;SDS011;49473;50.772;8.768;2022-11-20T02:39:05;12.13;;;10.93;;
2386;SDS011;49473;50.772;8.768;2022-11-20T02:41:33;13.27;;;11.87;;
2386;SDS011;49473;50.772;8.768;2022-11-20T02:44:02;11.90;;;10.23;;
2386;SDS011;49473;50.772;8.768;2022-11-20T02:46:30;12.87;;;11.00;;
2386;SDS011;49473;50.772;8.768;2022-11-20T02:48:57;11.70;;;10.37;;
2386;SDS011;49473;50.772;8.768;2022-11-20T02:51:24;12.60;;;11.30;;
2386;SDS011;49473;50.772;8.768;2022-11-20T02:53:51;11.87;;;10.63;;
2386;SDS011;49473;50.772;8.768;2022-11-20T02:56:19;12.20;;;10.97;;
2386;SDS011;49473;50.772;8.768;2022-11-20T02:58:46;11.33;;;10.13;;
2386;SDS011;49473;50.772;8.768;2022-11-20T03:01:13;13.67;;;11.43;;
2386;SDS011;49473;50.772;8.768;2022-11-20T03:03:40;11.00;;;9.90;;
2386;SDS011;49473;50.772;8.768;2022-11-20T03:06:07;11.47;;;10.10;;
2386;SDS011;49473;50.772;8.768;2022-11-20T03:08:33;11.50;;;10.30;;
2386;SDS011;49473;50.772;8.768;2022-11-20T03:11:04;11.73;;;10.17;;
2386;SDS011;49473;50.772;8.768;2022-11-20T03:13:33;12.43;;;11.13;;
2386;SDS011;49473;50.772;8.768;2022-11-20T03:16:04;12.87;;;10.10;;
2386;SDS011;49473;50.772;8.768;2022-11-20T03:18:32;11.33;;;10.17;;
2386;SDS011;49473;50.772;8.768;2022-11-20T03:20:59;13.60;;;11.30;;
2386;SDS011;49473;50.772;8.768;2022-11-20T03:23:26;11.07;;;9.50;;
2386;SDS011;49473;50.772;8.768;2022-11-20T03:25:55;11.30;;;10.17;;
2386;SDS011;49473;50.772;8.768;2022-11-20T03:28:22;12.33;;;11.03;;
2386;SDS011;49473;50.772;8.768;2022-11-20T03:30:50;12.03;;;10.10;;
2386;SDS011;49473;50.772;8.768;2022-11-20T03:33:17;10.90;;;9.90;;
2386;SDS011;49473;50.772;8.768;2022-11-20T03:35:44;12.63;;;10.50;;
2386;SDS011;49473;50.772;8.768;2022-11-20T03:38:11;13.40;;;10.77;;
2386;SDS011;49473;50.772;8.768;2022-11-20T03:40:38;12.23;;;10.60;;
2386;SDS011;49473;50.772;8.768;2022-11-20T03:43:04;12.27;;;10.30;;
2386;SDS011;49473;50.772;8.768;2022-11-20T03:45:31;12.30;;;11.00;;
2386;SDS011;49473;50.772;8.768;2022-11-20T03:47:59;12.10;;;10.90;;
2386;SDS011;49473;50.772;8.768;2022-11-20T03:50:26;13.90;;;11.37;;
2386;SDS011;49473;50.772;8.768;2022-11-20T03:52:53;13.90;;;10.70;;
2386;SDS011;49473;50.772;8.768;2022-11-20T03:55:19;11.77;;;10.60;;
2386;SDS011;49473;50.772;8.768;2022-11-20T03:57:46;12.17;;;10.43;;
2386;SDS011;49473;50.772;8.768;2022-11-20T04:00:13;11.93;;;10.57;;
2386;SDS011;49473;50.772;8.768;2022-11-20T04:02:41;12.83;;;11.33;;
2386;SDS011;49473;50.772;8.768;2022-11-20T04:05:09;11.67;;;10.17;;
2386;SDS011;49473;50.772;8.768;2022-11-20T04:07:36;12.93;;;10.63;;
2386;SDS011;49473;50.772;8.768;2022-11-20T04:10:02;12.40;;;10.40;;
2386;SDS011;49473;50.772;8.768;2022-11-20T04:12:31;12.40;;;10.80;;
2386;SDS011;49473;50.772;8.768;2022-11-20T04:14:59;13.53;;;11.30;;
2386;SDS011;49473;50.772;8.768;2022-11-20T04:17:26;12.97;;;10.80;;
2386;SDS011;49473;50.772;8.768;2022-11-20T04:19:52;12.23;;;10.63;;
2386;SDS011;49473;50.772;8.768;2022-11-20T04:22:20;13.10;;;10.07;;
2386;SDS011;49473;50.772;8.768;2022-11-20T04:24:47;13.00;;;10.87;;
2386;SDS011;49473;50.772;8.768;2022-11-20T04:27:14;11.77;;;10.57;;
2386;SDS011;49473;50.772;8.768;2022-11-20T04:29:41;12.23;;;10.60;;
2386;SDS011;49473;50.772;8.768;2022-11-20T04:32:07;13.13;;;11.73;;
2386;SDS011;49473;50.772;8.768;2022-11-20T04:34:34;12.77;;;11.20;;
2386;SDS011;49473;50.772;8.768;2022-11-20T04:37:01;16.90;;;12.30;;
2386;SDS011;49473;50.772;8.768;2022-11-20T04:39:29;12.07;;;10.63;;
2386;SDS011;49473;50.772;8.768;2022-11-20T04:41:56;12.03;;;10.77;;
2386;SDS011;49473;50.772;8.768;2022-11-20T04:44:37;12.23;;;10.33;;
2386;SDS011;49473;50.772;8.768;2022-11-20T04:47:03;13.30;;;10.67;;
2386;SDS011;49473;50.772;8.768;2022-11-20T04:49:30;11.77;;;10.50;;
2386;SDS011;49473;50.772;8.768;2022-11-20T04:51:57;12.50;;;10.70;;
2386;SDS011;49473;50.772;8.768;2022-11-20T04:54:24;13.80;;;10.47;;
2386;SDS011;49473;50.772;8.768;2022-11-20T04:56:52;11.03;;;9.90;;
2386;SDS011;49473;50.772;8.768;2022-11-20T04:59:19;11.10;;;9.40;;
2386;SDS011;49473;50.772;8.768;2022-11-20T05:01:45;11.00;;;9.70;;
2386;SDS011;49473;50.772;8.768;2022-11-20T05:04:12;12.30;;;10.43;;
2386;SDS011;49473;50.772;8.768;2022-11-20T05:06:39;11.30;;;10.10;;
2386;SDS011;49473;50.772;8.768;2022-11-20T05:09:06;11.60;;;10.07;;
2386;SDS011;49473;50.772;8.768;2022-11-20T05:11:33;12.50;;;11.20;;
2386;SDS011;49473;50.772;8.768;2022-11-20T05:14:01;12.70;;;11.33;;
2386;SDS011;49473;50.772;8.768;2022-11-20T05:16:27;12.63;;;11.30;;
2386;SDS011;49473;50.772;8.768;2022-11-20T05:18:54;12.00;;;10.80;;
2386;SDS011;49473;50.772;8.768;2022-11-20T05:21:22;13.90;;;11.37;;
2386;SDS011;49473;50.772;8.768;2022-11-20T05:23:48;11.77;;;10.47;;
2386;SDS011;49473;50.772;8.768;2022-11-20T05:26:16;13.13;;;11.47;;
2386;SDS011;49473;50.772;8.768;2022-11-20T05:28:44;12.43;;;11.17;;
2386;SDS011;49473;50.772;8.768;2022-11-20T05:31:14;12.23;;;10.83;;
2386;SDS011;49473;50.772;8.768;2022-11-20T05:33:42;13.23;;;11.83;;
2386;SDS011;49473;50.772;8.768;2022-11-20T05:36:10;12.63;;;11.33;;
2386;SDS011;49473;50.772;8.768;2022-11-20T05:38:38;13.37;;;11.13;;
2386;SDS011;49473;50.772;8.768;2022-11-20T05:41:06;13.40;;;11.17;;
2386;SDS011;49473;50.772;8.768;2022-11-20T05:43:34;12.33;;;10.80;;
2386;SDS011;49473;50.772;8.768;2022-11-20T05:46:01;12.80;;;11.50;;
2386;SDS011;49473;50.772;8.768;2022-11-20T05:48:30;15.23;;;11.73;;
2386;SDS011;49473;50.772;8.768;2022-11-20T05:50:57;13.57;;;10.93;;
2386;SDS011;49473;50.772;8.768;2022-11-20T05:53:24;11.20;;;10.00;;
2386;SDS011;49473;50.772;8.768;2022-11-20T05:55:57;13.63;;;11.47;;
2386;SDS011;49473;50.772;8.768;2022-11-20T05:58:25;14.50;;;12.90;;
2386;SDS011;49473;50.772;8.768;2022-11-20T06:00:52;12.17;;;10.83;;
2386;SDS011;49473;50.772;8.768;2022-11-20T06:03:19;15.77;;;12.60;;
2386;SDS011;49473;50.772;8.768;2022-11-20T06:05:47;13.87;;;12.30;;
2386;SDS011;49473;50.772;8.768;2022-11-20T06:08:14;13.87;;;12.43;;
2386;SDS011;49473;50.772;8.768;2022-11-20T06:10:41;13.90;;;12.50;;
2386;SDS011;49473;50.772;8.768;2022-11-20T06:13:08;15.50;;;12.93;;
2386;SDS011;49473;50.772;8.768;2022-11-20T06:15:35;13.00;;;11.60;;
2386;SDS011;49473;50.772;8.768;2022-11-20T06:18:01;14.60;;;12.60;;
2386;SDS011;49473;50.772;8.768;2022-11-20T06:20:28;13.80;;;11.87;;
2386;SDS011;49473;50.772;8.768;2022-11-20T06:22:56;16.10;;;13.47;;
2386;SDS011;49473;50.772;8.768;2022-11-20T06:25:24;13.70;;;12.20;;
2386;SDS011;49473;50.772;8.768;2022-11-20T06:27:51;14.33;;;12.50;;
2386;SDS011;49473;50.772;8.768;2022-11-20T06:30:18;14.80;;;13.30;;
2386;SDS011;49473;50.772;8.768;2022-11-20T06:32:45;17.00;;;12.67;;
2386;SDS011;49473;50.772;8.768;2022-11-20T06:35:11;15.27;;;13.03;;
2386;SDS011;49473;50.772;8.768;2022-11-20T06:37:38;14.73;;;12.93;;
2386;SDS011;49473;50.772;8.768;2022-11-20T06:40:07;15.27;;;12.60;;
2386;SDS011;49473;50.772;8.768;2022-11-20T06:42:35;14.97;;;13.00;;
2386;SDS011;49473;50.772;8.768;2022-11-20T06:45:02;15.50;;;12.83;;
2386;SDS011;49473;50.772;8.768;2022-11-20T06:47:29;17.50;;;13.70;;
2386;SDS011;49473;50.772;8.768;2022-11-20T06:49:56;14.43;;;12.67;;
2386;SDS011;49473;50.772;8.768;2022-11-20T06:52:23;15.17;;;13.33;;
2386;SDS011;49473;50.772;8.768;2022-11-20T06:54:50;16.30;;;13.83;;
2386;SDS011;49473;50.772;8.768;2022-11-20T06:57:18;15.50;;;13.20;;
2386;SDS011;49473;50.772;8.768;2022-11-20T06:59:45;20.00;;;13.97;;
2386;SDS011;49473;50.772;8.768;2022-11-20T07:02:12;15.83;;;13.57;;
2386;SDS011;49473;50.772;8.768;2022-11-20T07:04:38;17.70;;;13.67;;
2386;SDS011;49473;50.772;8.768;2022-11-20T07:07:05;18.40;;;14.63;;
2386;SDS011;49473;50.772;8.768;2022-11-20T07:09:32;16.17;;;13.57;;
2386;SDS011;49473;50.772;8.768;2022-11-20T07:11:59;17.53;;;14.70;;
2386;SDS011;49473;50.772;8.768;2022-11-20T07:14:27;20.10;;;15.27;;
2386;SDS011;49473;50.772;8.768;2022-11-20T07:16:54;16.23;;;13.27;;
2386;SDS011;49473;50.772;8.768;2022-11-20T07:19:21;17.80;;;13.80;;
2386;SDS011;49473;50.772;8.768;2022-11-20T07:21:47;16.50;;;14.30;;
2386;SDS011;49473;50.772;8.768;2022-11-20T07:24:14;17.10;;;14.37;;
2386;SDS011;49473;50.772;8.768;2022-11-20T07:26:41;16.73;;;13.90;;
2386;SDS011;49473;50.772;8.768;2022-11-20T07:29:08;15.67;;;13.63;;
2386;SDS011;49473;50.772;8.768;2022-11-20T07:31:36;14.67;;;12.50;;
2386;SDS011;49473;50.772;8.768;2022-11-20T07:34:03;17.60;;;14.10;;
2386;SDS011;49473;50.772;8.768;2022-11-20T07:36:29;16.00;;;13.13;;
2386;SDS011;49473;50.772;8.768;2022-11-20T07:38:56;15.10;;;13.50;;
2386;SDS011;49473;50.772;8.768;2022-11-20T07:41:23;16.00;;;14.30;;
2386;SDS011;49473;50.772;8.768;2022-11-20T07:43:49;17.73;;;13.50;;
2386;SDS011;49473;50.772;8.768;2022-11-20T07:46:16;16.17;;;13.80;;
2386;SDS011;49473;50.772;8.768;2022-11-20T07:48:44;15.37;;;13.73;;
2386;SDS011;49473;50.772;8.768;2022-11-20T07:51:11;17.13;;;13.47;;
2386;SDS011;49473;50.772;8.768;2022-11-20T07:53:38;16.23;;;14.30;;
2386;SDS011;49473;50.772;8.768;2022-11-20T07:56:05;14.87;;;13.40;;
2386;SDS011;49473;50.772;8.768;2022-11-20T07:58:32;17.63;;;14.43;;
2386;SDS011;49473;50.772;8.768;2022-11-20T08:01:02;18.70;;;15.20;;
2386;SDS011;49473;50.772;8.768;2022-11-20T08:03:29;15.67;;;13.97;;
2386;SDS011;49473;50.772;8.768;2022-11-20T08:05:59;18.80;;;15.07;;
2386;SDS011;49473;50.772;8.768;2022-11-20T08:08:26;17.27;;;14.20;;
2386;SDS011;49473;50.772;8.768;2022-11-20T08:10:53;17.90;;;15.50;;
2386;SDS011;49473;50.772;8.768;2022-11-20T08:13:43;17.10;;;15.30;;
2386;SDS011;49473;50.772;8.768;2022-11-20T08:16:28;19.77;;;16.60;;
2386;SDS011;49473;50.772;8.768;2022-11-20T08:18:55;19.83;;;17.03;;
2386;SDS011;49473;50.772;8.768;2022-11-20T08:21:24;25.20;;;19.70;;
2386;SDS011;49473;50.772;8.768;2022-11-20T08:23:51;21.30;;;18.43;;
2386;SDS011;49473;50.772;8.768;2022-11-20T08:26:18;17.03;;;14.90;;
2386;SDS011;49473;50.772;8.768;2022-11-20T08:28:45;18.83;;;16.30;;
2386;SDS011;49473;50.772;8.768;2022-11-20T08:31:12;26.00;;;22.00;;
2386;SDS011;49473;50.772;8.768;2022-11-20T08:33:38;18.03;;;15.43;;
2386;SDS011;49473;50.772;8.768;2022-11-20T08:36:05;17.13;;;15.30;;
2386;SDS011;49473;50.772;8.768;2022-11-20T08:38:34;18.27;;;15.00;;
2386;SDS011;49473;50.772;8.768;2022-11-20T08:41:01;20.70;;;17.50;;
2386;SDS011;49473;50.772;8.768;2022-11-20T08:43:47;20.60;;;15.77;;
2386;SDS011;49473;50.772;8.768;2022-11-20T08:46:14;35.30;;;28.20;;
2386;SDS011;49473;50.772;8.768;2022-11-20T08:48:41;17.97;;;16.07;;
2386;SDS011;49473;50.772;8.768;2022-11-20T08:51:08;21.30;;;17.70;;
2386;SDS011;49473;50.772;8.768;2022-11-20T08:53:36;19.53;;;17.20;;
2386;SDS011;49473;50.772;8.768;2022-11-20T08:56:03;38.90;;;30.13;;
2386;SDS011;49473;50.772;8.768;2022-11-20T08:58:31;19.37;;;17.23;;
2386;SDS011;49473;50.772;8.768;2022-11-20T09:00:58;34.03;;;30.33;;
2386;SDS011;49473;50.772;8.768;2022-11-20T09:03:24;27.07;;;22.97;;
2386;SDS011;49473;50.772;8.768;2022-11-20T09:05:56;18.27;;;16.47;;
2386;SDS011;49473;50.772;8.768;2022-11-20T09:08:23;20.67;;;18.20;;
2386;SDS011;49473;50.772;8.768;2022-11-20T09:10:52;22.50;;;17.80;;
2386;SDS011;49473;50.772;8.768;2022-11-20T09:13:19;23.70;;;20.53;;
2386;SDS011;49473;50.772;8.768;2022-11-20T09:15:46;23.53;;;20.43;;
2386;SDS011;49473;50.772;8.768;2022-11-20T09:18:13;18.67;;;15.70;;
2386;SDS011;49473;50.772;8.768;2022-11-20T09:20:40;17.17;;;15.30;;
2386;SDS011;49473;50.772;8.768;2022-11-20T09:23:06;20.23;;;16.53;;
2386;SDS011;49473;50.772;8.768;2022-11-20T09:25:33;18.73;;;16.73;;
2386;SDS011;49473;50.772;8.768;2022-11-20T09:28:01;17.10;;;15.33;;
2386;SDS011;49473;50.772;8.768;2022-11-20T09:30:28;18.67;;;16.80;;
2386;SDS011;49473;50.772;8.768;2022-11-20T09:32:55;19.00;;;16.00;;
2386;SDS011;49473;50.772;8.768;2022-11-20T09:35:22;20.50;;;17.63;;
2386;SDS011;49473;50.772;8.768;2022-11-20T09:37:49;19.17;;;15.53;;
2386;SDS011;49473;50.772;8.768;2022-11-20T09:40:18;20.47;;;16.67;;
2386;SDS011;49473;50.772;8.768;2022-11-20T09:42:47;19.17;;;16.90;;
2386;SDS011;49473;50.772;8.768;2022-11-20T09:45:23;23.27;;;16.80;;
2386;SDS011;49473;50.772;8.768;2022-11-20T09:48:00;26.33;;;18.07;;
2386;SDS011;49473;50.772;8.768;2022-11-20T09:50:45;21.10;;;16.33;;
2386;SDS011;49473;50.772;8.768;2022-11-20T09:53:16;20.70;;;16.30;;
2386;SDS011;49473;50.772;8.768;2022-11-20T09:55:52;21.03;;;17.10;;
2386;SDS011;49473;50.772;8.768;2022-11-20T09:58:22;18.97;;;16.10;;
2386;SDS011;49473;50.772;8.768;2022-11-20T10:00:59;21.87;;;16.20;;
2386;SDS011;49473;50.772;8.768;2022-11-20T10:03:36;22.70;;;17.37;;
2386;SDS011;49473;50.772;8.768;2022-11-20T10:06:08;19.23;;;16.63;;
2386;SDS011;49473;50.772;8.768;2022-11-20T10:08:39;19.27;;;15.03;;
2386;SDS011;49473;50.772;8.768;2022-11-20T10:11:12;21.10;;;17.83;;
2386;SDS011;49473;50.772;8.768;2022-11-20T10:13:45;19.80;;;16.70;;
2386;SDS011;49473;50.772;8.768;2022-11-20T10:16:22;19.40;;;15.50;;
2386;SDS011;49473;50.772;8.768;2022-11-20T10:19:02;16.37;;;14.63;;
2386;SDS011;49473;50.772;8.768;2022-11-20T10:21:38;18.37;;;14.70;;
2386;SDS011;49473;50.772;8.768;2022-11-20T10:24:26;16.53;;;14.10;;
2386;SDS011;49473;50.772;8.768;2022-11-20T10:27:14;16.73;;;13.80;;
2386;SDS011;49473;50.772;8.768;2022-11-20T10:29:53;17.17;;;12.97;;
2386;SDS011;49473;50.772;8.768;2022-11-20T10:32:30;16.10;;;13.70;;
2386;SDS011;49473;50.772;8.768;2022-11-20T10:35:01;16.13;;;12.33;;
2386;SDS011;49473;50.772;8.768;2022-11-20T10:37:34;14.63;;;12.23;;
2386;SDS011;49473;50.772;8.768;2022-11-20T10:40:05;15.20;;;13.30;;
2386;SDS011;49473;50.772;8.768;2022-11-20T10:42:45;14.83;;;13.23;;
2386;SDS011;49473;50.772;8.768;2022-11-20T10:45:17;15.90;;;14.10;;
2386;SDS011;49473;50.772;8.768;2022-11-20T10:47:54;13.93;;;12.53;;
2386;SDS011;49473;50.772;8.768;2022-11-20T10:50:31;14.07;;;12.67;;
2386;SDS011;49473;50.772;8.768;2022-11-20T10:53:00;13.40;;;12.10;;
2386;SDS011;49473;50.772;8.768;2022-11-20T10:55:42;13.20;;;11.80;;
2386;SDS011;49473;50.772;8.768;2022-11-20T10:58:13;13.47;;;11.60;;
2386;SDS011;49473;50.772;8.768;2022-11-20T11:00:43;12.37;;;11.17;;
2386;SDS011;49473;50.772;8.768;2022-11-20T11:03:16;23.40;;;17.13;;
2386;SDS011;49473;50.772;8.768;2022-11-20T11:05:50;23.87;;;17.50;;
2386;SDS011;49473;50.772;8.768;2022-11-20T11:08:20;14.80;;;13.30;;
2386;SDS011;49473;50.772;8.768;2022-11-20T11:10:51;13.03;;;10.90;;
2386;SDS011;49473;50.772;8.768;2022-11-20T11:13:20;12.87;;;11.10;;
2386;SDS011;49473;50.772;8.768;2022-11-20T11:15:48;10.93;;;9.87;;
2386;SDS011;49473;50.772;8.768;2022-11-20T11:18:24;12.20;;;11.10;;
2386;SDS011;49473;50.772;8.768;2022-11-20T11:20:52;12.00;;;10.67;;
2386;SDS011;49473;50.772;8.768;2022-11-20T11:26:07;11.63;;;10.37;;
2386;SDS011;49473;50.772;8.768;2022-11-20T11:28:52;11.53;;;10.43;;
2386;SDS011;49473;50.772;8.768;2022-11-20T11:31:24;16.47;;;14.97;;
2386;SDS011;49473;50.772;8.768;2022-11-20T11:34:02;13.10;;;11.80;;
2386;SDS011;49473;50.772;8.768;2022-11-20T11:36:30;11.70;;;10.33;;
2386;SDS011;49473;50.772;8.768;2022-11-20T11:38:58;13.30;;;11.90;;
2386;SDS011;49473;50.772;8.768;2022-11-20T11:41:28;11.93;;;10.50;;
2386;SDS011;49473;50.772;8.768;2022-11-20T11:44:00;12.40;;;10.57;;
2386;SDS011;49473;50.772;8.768;2022-11-20T11:46:58;12.07;;;10.77;;
2386;SDS011;49473;50.772;8.768;2022-11-20T11:49:26;11.27;;;10.17;;
2386;SDS011;49473;50.772;8.768;2022-11-20T11:51:58;12.33;;;10.57;;
2386;SDS011;49473;50.772;8.768;2022-11-20T11:54:30;10.83;;;9.73;;
2386;SDS011;49473;50.772;8.768;2022-11-20T11:57:04;12.60;;;11.30;;
2386;SDS011;49473;50.772;8.768;2022-11-20T11:59:40;12.63;;;11.27;;
2386;SDS011;49473;50.772;8.768;2022-11-20T12:02:15;11.87;;;10.70;;
2386;SDS011;49473;50.772;8.768;2022-11-20T12:04:56;12.87;;;10.53;;
2386;SDS011;49473;50.772;8.768;2022-11-20T12:07:28;13.63;;;11.60;;
2386;SDS011;49473;50.772;8.768;2022-11-20T12:10:04;13.90;;;11.60;;
2386;SDS011;49473;50.772;8.768;2022-11-20T12:12:39;17.00;;;11.80;;
2386;SDS011;49473;50.772;8.768;2022-11-20T12:15:09;15.13;;;12.00;;
2386;SDS011;49473;50.772;8.768;2022-11-20T12:17:38;23.40;;;19.97;;
2386;SDS011;49473;50.772;8.768;2022-11-20T12:20:10;13.03;;;11.30;;
2386;SDS011;49473;50.772;8.768;2022-11-20T12:22:41;14.03;;;11.77;;
2386;SDS011;49473;50.772;8.768;2022-11-20T12:25:17;13.97;;;12.47;;
2386;SDS011;49473;50.772;8.768;2022-11-20T12:30:41;17.27;;;14.33;;
2386;SDS011;49473;50.772;8.768;2022-11-20T12:33:25;15.17;;;13.57;;
2386;SDS011;49473;50.772;8.768;2022-11-20T12:36:13;15.73;;;13.73;;
2386;SDS011;49473;50.772;8.768;2022-11-20T12:38:54;15.70;;;11.70;;
2386;SDS011;49473;50.772;8.768;2022-11-20T12:41:31;18.37;;;16.37;;
2386;SDS011;49473;50.772;8.768;2022-11-20T12:44:34;15.90;;;13.60;;
2386;SDS011;49473;50.772;8.768;2022-11-20T12:47:28;16.73;;;14.30;;
2386;SDS011;49473;50.772;8.768;2022-11-20T12:50:06;15.97;;;14.30;;
2386;SDS011;49473;50.772;8.768;2022-11-20T12:52:44;18.20;;;15.20;;
2386;SDS011;49473;50.772;8.768;2022-11-20T12:55:22;16.33;;;14.63;;
2386;SDS011;49473;50.772;8.768;2022-11-20T12:57:58;15.93;;;13.90;;
2386;SDS011;49473;50.772;8.768;2022-11-20T13:00:28;18.90;;;15.03;;
2386;SDS011;49473;50.772;8.768;2022-11-20T13:03:03;16.63;;;13.87;;
2386;SDS011;49473;50.772;8.768;2022-11-20T13:05:50;17.00;;;13.10;;
2386;SDS011;49473;50.772;8.768;2022-11-20T13:08:22;19.53;;;15.13;;
2386;SDS011;49473;50.772;8.768;2022-11-20T13:10:52;16.13;;;14.23;;
2386;SDS011;49473;50.772;8.768;2022-11-20T13:13:25;20.60;;;17.77;;
2386;SDS011;49473;50.772;8.768;2022-11-20T13:16:01;20.10;;;15.50;;
2386;SDS011;49473;50.772;8.768;2022-11-20T13:18:35;18.80;;;14.27;;
2386;SDS011;49473;50.772;8.768;2022-11-20T13:21:13;19.27;;;14.57;;
2386;SDS011;49473;50.772;8.768;2022-11-20T13:23:42;21.20;;;19.07;;
2386;SDS011;49473;50.772;8.768;2022-11-20T13:26:14;24.70;;;21.93;;
2386;SDS011;49473;50.772;8.768;2022-11-20T13:28:44;18.20;;;16.20;;
2386;SDS011;49473;50.772;8.768;2022-11-20T13:31:23;24.30;;;19.40;;
2386;SDS011;49473;50.772;8.768;2022-11-20T13:33:55;16.53;;;14.03;;
2386;SDS011;49473;50.772;8.768;2022-11-20T13:36:23;16.60;;;13.90;;
2386;SDS011;49473;50.772;8.768;2022-11-20T13:38:54;16.03;;;13.70;;
2386;SDS011;49473;50.772;8.768;2022-11-20T13:41:25;20.63;;;15.83;;
2386;SDS011;49473;50.772;8.768;2022-11-20T13:43:57;17.63;;;14.63;;
2386;SDS011;49473;50.772;8.768;2022-11-20T13:46:35;16.83;;;14.70;;
2386;SDS011;49473;50.772;8.768;2022-11-20T13:49:09;18.83;;;15.20;;
2386;SDS011;49473;50.772;8.768;2022-11-20T13:51:43;23.30;;;17.07;;
2386;SDS011;49473;50.772;8.768;2022-11-20T13:54:31;18.17;;;14.90;;
2386;SDS011;49473;50.772;8.768;2022-11-20T13:57:21;21.77;;;14.97;;
2386;SDS011;49473;50.772;8.768;2022-11-20T14:00:12;19.97;;;14.90;;
2386;SDS011;49473;50.772;8.768;2022-11-20T14:02:40;17.13;;;14.77;;
2386;SDS011;49473;50.772;8.768;2022-11-20T14:05:13;16.87;;;14.17;;
2386;SDS011;49473;50.772;8.768;2022-11-20T14:07:44;17.43;;;14.23;;
2386;SDS011;49473;50.772;8.768;2022-11-20T14:10:20;17.17;;;14.00;;
2386;SDS011;49473;50.772;8.768;2022-11-20T14:12:49;16.90;;;13.07;;
2386;SDS011;49473;50.772;8.768;2022-11-20T14:15:27;16.97;;;13.90;;
2386;SDS011;49473;50.772;8.768;2022-11-20T14:17:55;15.73;;;12.30;;
2386;SDS011;49473;50.772;8.768;2022-11-20T14:20:24;18.30;;;14.63;;
2386;SDS011;49473;50.772;8.768;2022-11-20T14:22:53;16.17;;;13.77;;
2386;SDS011;49473;50.772;8.768;2022-11-20T14:25:22;18.63;;;15.67;;
2386;SDS011;49473;50.772;8.768;2022-11-20T14:27:52;16.43;;;14.70;;
2386;SDS011;49473;50.772;8.768;2022-11-20T14:30:21;19.20;;;14.87;;
2386;SDS011;49473;50.772;8.768;2022-11-20T14:32:49;16.23;;;14.33;;
2386;SDS011;49473;50.772;8.768;2022-11-20T14:35:20;18.50;;;14.60;;
2386;SDS011;49473;50.772;8.768;2022-11-20T14:37:50;16.87;;;13.80;;
2386;SDS011;49473;50.772;8.768;2022-11-20T14:40:26;17.97;;;14.83;;
2386;SDS011;49473;50.772;8.768;2022-11-20T14:42:55;16.77;;;14.17;;
2386;SDS011;49473;50.772;8.768;2022-11-20T14:45:22;17.87;;;14.27;;
2386;SDS011;49473;50.772;8.768;2022-11-20T14:47:50;18.73;;;14.23;;
2386;SDS011;49473;50.772;8.768;2022-11-20T14:50:19;17.50;;;14.93;;
2386;SDS011;49473;50.772;8.768;2022-11-20T14:52:51;22.93;;;17.73;;
2386;SDS011;49473;50.772;8.768;2022-11-20T14:55:31;18.70;;;14.90;;
2386;SDS011;49473;50.772;8.768;2022-11-20T14:58:01;18.53;;;15.97;;